sensor_id;sensor_type;location;lat;lon;timestamp;pressure;altitude;pressure_sealevel;temperature;humidity
25944;BME280;13742;49.306;8.636;2022-08-01T00:00:09;100402.75;;;25.27;41.68
25944;BME280;13742;49.306;8.636;2022-08-01T00:01:09;100400.83;;;25.26;42.20
25944;BME280;13742;49.306;8.636;2022-08-01T00:02:09;100402.56;;;25.26;42.02
25944;BME280;13742;49.306;8.636;2022-08-01T00:03:09;100402.23;;;25.26;42.00
25944;BME280;13742;49.306;8.636;2022-08-01T00:04:09;100401.31;;;25.25;42.75
25944;BME280;13742;49.306;8.636;2022-08-01T00:05:09;100401.73;;;25.25;42.61
25944;BME280;13742;49.306;8.636;2022-08-01T00:06:09;100400.63;;;25.24;42.33
25944;BME280;13742;49.306;8.636;2022-08-01T00:07:09;100399.83;;;25.23;42.28
25944;BME280;13742;49.306;8.636;2022-08-01T00:08:09;100404.55;;;25.22;42.90
25944;BME280;13742;49.306;8.636;2022-08-01T00:09:09;100406.24;;;25.19;42.86
25944;BME280;13742;49.306;8.636;2022-08-01T00:10:13;100402.94;;;25.18;42.79
25944;BME280;13742;49.306;8.636;2022-08-01T00:11:09;100405.98;;;25.18;42.27
25944;BME280;13742;49.306;8.636;2022-08-01T00:12:09;100404.30;;;25.18;42.16
25944;BME280;13742;49.306;8.636;2022-08-01T00:13:09;100406.80;;;25.17;43.23
25944;BME280;13742;49.306;8.636;2022-08-01T00:14:09;100407.83;;;25.17;42.72
25944;BME280;13742;49.306;8.636;2022-08-01T00:15:10;100405.70;;;25.16;42.29
25944;BME280;13742;49.306;8.636;2022-08-01T00:16:09;100406.00;;;25.14;42.80
25944;BME280;13742;49.306;8.636;2022-08-01T00:17:09;100409.13;;;25.12;43.06
25944;BME280;13742;49.306;8.636;2022-08-01T00:18:09;100403.45;;;25.11;42.28
25944;BME280;13742;49.306;8.636;2022-08-01T00:19:09;100405.06;;;25.11;42.36
25944;BME280;13742;49.306;8.636;2022-08-01T00:20:10;100408.84;;;25.11;42.18
25944;BME280;13742;49.306;8.636;2022-08-01T00:21:09;100403.38;;;25.11;42.41
25944;BME280;13742;49.306;8.636;2022-08-01T00:22:09;100405.78;;;25.10;42.52
25944;BME280;13742;49.306;8.636;2022-08-01T00:23:09;100404.08;;;25.09;42.51
25944;BME280;13742;49.306;8.636;2022-08-01T00:24:09;100403.75;;;25.08;42.38
25944;BME280;13742;49.306;8.636;2022-08-01T00:25:09;100407.67;;;25.07;42.74
25944;BME280;13742;49.306;8.636;2022-08-01T00:26:09;100407.48;;;25.06;42.78
25944;BME280;13742;49.306;8.636;2022-08-01T00:27:09;100405.70;;;25.06;42.99
25944;BME280;13742;49.306;8.636;2022-08-01T00:28:09;100405.13;;;25.06;42.53
25944;BME280;13742;49.306;8.636;2022-08-01T00:29:09;100406.29;;;25.05;42.43
25944;BME280;13742;49.306;8.636;2022-08-01T00:30:15;100404.41;;;25.04;42.43
25944;BME280;13742;49.306;8.636;2022-08-01T00:31:09;100408.88;;;25.03;43.75
25944;BME280;13742;49.306;8.636;2022-08-01T00:32:09;100406.90;;;25.02;43.13
25944;BME280;13742;49.306;8.636;2022-08-01T00:33:09;100408.50;;;25.01;43.29
25944;BME280;13742;49.306;8.636;2022-08-01T00:34:09;100407.03;;;25.00;43.63
25944;BME280;13742;49.306;8.636;2022-08-01T00:35:09;100404.67;;;24.97;43.12
25944;BME280;13742;49.306;8.636;2022-08-01T00:36:09;100407.05;;;24.96;43.30
25944;BME280;13742;49.306;8.636;2022-08-01T00:37:09;100406.78;;;24.96;43.30
25944;BME280;13742;49.306;8.636;2022-08-01T00:38:09;100408.42;;;24.94;43.45
25944;BME280;13742;49.306;8.636;2022-08-01T00:39:09;100410.65;;;24.95;43.98
25944;BME280;13742;49.306;8.636;2022-08-01T00:40:09;100410.61;;;24.93;44.08
25944;BME280;13742;49.306;8.636;2022-08-01T00:41:09;100411.27;;;24.88;44.30
25944;BME280;13742;49.306;8.636;2022-08-01T00:42:09;100407.70;;;24.87;43.45
25944;BME280;13742;49.306;8.636;2022-08-01T00:43:09;100411.16;;;24.87;43.67
25944;BME280;13742;49.306;8.636;2022-08-01T00:44:09;100413.06;;;24.85;44.18
25944;BME280;13742;49.306;8.636;2022-08-01T00:45:09;100419.29;;;24.64;45.33
25944;BME280;13742;49.306;8.636;2022-08-01T00:46:09;100420.62;;;24.56;45.38
25944;BME280;13742;49.306;8.636;2022-08-01T00:47:09;100415.77;;;24.65;44.59
25944;BME280;13742;49.306;8.636;2022-08-01T00:48:09;100417.20;;;24.65;45.14
25944;BME280;13742;49.306;8.636;2022-08-01T00:49:09;100417.38;;;24.65;44.64
25944;BME280;13742;49.306;8.636;2022-08-01T00:50:09;100414.80;;;24.63;45.30
25944;BME280;13742;49.306;8.636;2022-08-01T00:51:09;100415.84;;;24.57;45.71
25944;BME280;13742;49.306;8.636;2022-08-01T00:52:09;100415.36;;;24.58;45.34
25944;BME280;13742;49.306;8.636;2022-08-01T00:53:09;100417.99;;;24.55;45.50
25944;BME280;13742;49.306;8.636;2022-08-01T00:54:09;100415.76;;;24.50;45.78
25944;BME280;13742;49.306;8.636;2022-08-01T00:55:09;100413.17;;;24.48;45.59
25944;BME280;13742;49.306;8.636;2022-08-01T00:56:09;100417.10;;;24.44;45.69
25944;BME280;13742;49.306;8.636;2022-08-01T00:57:09;100417.83;;;24.31;46.09
25944;BME280;13742;49.306;8.636;2022-08-01T00:58:09;100418.20;;;24.21;46.37
25944;BME280;13742;49.306;8.636;2022-08-01T00:59:09;100418.70;;;24.18;46.25
25944;BME280;13742;49.306;8.636;2022-08-01T01:00:09;100419.91;;;24.15;46.34
25944;BME280;13742;49.306;8.636;2022-08-01T01:01:09;100424.27;;;24.07;46.78
25944;BME280;13742;49.306;8.636;2022-08-01T01:02:09;100421.42;;;24.08;46.58
25944;BME280;13742;49.306;8.636;2022-08-01T01:03:09;100421.99;;;24.00;46.72
25944;BME280;13742;49.306;8.636;2022-08-01T01:04:09;100424.23;;;23.95;47.09
25944;BME280;13742;49.306;8.636;2022-08-01T01:05:09;100424.73;;;23.88;47.34
25944;BME280;13742;49.306;8.636;2022-08-01T01:08:13;100423.22;;;23.77;47.49
25944;BME280;13742;49.306;8.636;2022-08-01T01:10:10;100426.45;;;23.70;47.78
25944;BME280;13742;49.306;8.636;2022-08-01T01:11:13;100428.70;;;23.66;48.23
25944;BME280;13742;49.306;8.636;2022-08-01T01:14:10;100430.83;;;23.65;48.37
25944;BME280;13742;49.306;8.636;2022-08-01T01:16:13;100430.89;;;23.66;48.25
25944;BME280;13742;49.306;8.636;2022-08-01T01:17:09;100434.36;;;23.67;48.49
25944;BME280;13742;49.306;8.636;2022-08-01T01:18:09;100436.47;;;23.64;48.28
25944;BME280;13742;49.306;8.636;2022-08-01T01:19:10;100434.83;;;23.62;48.51
25944;BME280;13742;49.306;8.636;2022-08-01T01:20:10;100440.80;;;23.61;48.86
25944;BME280;13742;49.306;8.636;2022-08-01T01:25:14;100437.17;;;23.64;48.71
25944;BME280;13742;49.306;8.636;2022-08-01T01:29:13;100440.22;;;23.46;50.46
25944;BME280;13742;49.306;8.636;2022-08-01T01:30:09;100440.20;;;23.49;50.59
25944;BME280;13742;49.306;8.636;2022-08-01T01:31:09;100439.59;;;23.45;50.68
25944;BME280;13742;49.306;8.636;2022-08-01T01:33:10;100437.78;;;23.53;50.42
25944;BME280;13742;49.306;8.636;2022-08-01T01:34:09;100436.59;;;23.59;49.51
25944;BME280;13742;49.306;8.636;2022-08-01T01:35:10;100433.55;;;23.62;49.88
25944;BME280;13742;49.306;8.636;2022-08-01T01:36:09;100435.58;;;23.61;50.60
25944;BME280;13742;49.306;8.636;2022-08-01T01:37:11;100436.00;;;23.52;51.06
25944;BME280;13742;49.306;8.636;2022-08-01T01:38:12;100436.25;;;23.56;51.37
25944;BME280;13742;49.306;8.636;2022-08-01T01:39:09;100439.30;;;23.49;51.68
25944;BME280;13742;49.306;8.636;2022-08-01T01:40:09;100441.73;;;23.53;51.59
25944;BME280;13742;49.306;8.636;2022-08-01T01:41:12;100443.34;;;23.49;51.58
25944;BME280;13742;49.306;8.636;2022-08-01T01:42:09;100441.65;;;23.49;52.04
25944;BME280;13742;49.306;8.636;2022-08-01T01:43:09;100443.37;;;23.44;52.32
25944;BME280;13742;49.306;8.636;2022-08-01T01:44:09;100443.02;;;23.53;51.75
25944;BME280;13742;49.306;8.636;2022-08-01T01:45:09;100443.21;;;23.42;52.48
25944;BME280;13742;49.306;8.636;2022-08-01T01:46:09;100445.52;;;23.50;52.25
25944;BME280;13742;49.306;8.636;2022-08-01T01:47:09;100447.00;;;23.51;52.00
25944;BME280;13742;49.306;8.636;2022-08-01T01:48:09;100449.29;;;23.51;52.41
25944;BME280;13742;49.306;8.636;2022-08-01T01:49:11;100448.23;;;23.47;52.47
25944;BME280;13742;49.306;8.636;2022-08-01T01:50:09;100450.41;;;23.46;52.66
25944;BME280;13742;49.306;8.636;2022-08-01T01:51:09;100449.95;;;23.54;52.12
25944;BME280;13742;49.306;8.636;2022-08-01T01:52:09;100449.95;;;23.58;51.74
25944;BME280;13742;49.306;8.636;2022-08-01T01:53:10;100450.28;;;23.60;51.88
25944;BME280;13742;49.306;8.636;2022-08-01T01:54:09;100450.24;;;23.62;51.56
25944;BME280;13742;49.306;8.636;2022-08-01T01:55:09;100451.45;;;23.63;51.09
25944;BME280;13742;49.306;8.636;2022-08-01T01:56:09;100451.98;;;23.64;51.72
25944;BME280;13742;49.306;8.636;2022-08-01T01:57:09;100453.27;;;23.64;51.87
25944;BME280;13742;49.306;8.636;2022-08-01T01:58:09;100451.67;;;23.65;51.41
25944;BME280;13742;49.306;8.636;2022-08-01T01:59:09;100451.94;;;23.66;51.05
25944;BME280;13742;49.306;8.636;2022-08-01T02:00:09;100450.28;;;23.66;51.51
25944;BME280;13742;49.306;8.636;2022-08-01T02:01:11;100447.89;;;23.66;51.61
25944;BME280;13742;49.306;8.636;2022-08-01T02:02:09;100447.75;;;23.67;51.06
25944;BME280;13742;49.306;8.636;2022-08-01T02:03:09;100442.52;;;23.66;51.74
25944;BME280;13742;49.306;8.636;2022-08-01T02:04:09;100447.37;;;23.68;50.81
25944;BME280;13742;49.306;8.636;2022-08-01T02:05:10;100445.38;;;23.69;51.27
25944;BME280;13742;49.306;8.636;2022-08-01T02:06:09;100448.21;;;23.68;51.68
25944;BME280;13742;49.306;8.636;2022-08-01T02:07:09;100446.80;;;23.68;51.65
25944;BME280;13742;49.306;8.636;2022-08-01T02:08:09;100451.17;;;23.68;51.67
25944;BME280;13742;49.306;8.636;2022-08-01T02:09:09;100450.42;;;23.69;51.09
25944;BME280;13742;49.306;8.636;2022-08-01T02:10:09;100448.70;;;23.70;50.57
25944;BME280;13742;49.306;8.636;2022-08-01T02:11:14;100448.77;;;23.70;51.57
25944;BME280;13742;49.306;8.636;2022-08-01T02:12:12;100450.61;;;23.72;51.23
25944;BME280;13742;49.306;8.636;2022-08-01T02:13:10;100453.92;;;23.71;51.62
25944;BME280;13742;49.306;8.636;2022-08-01T02:14:09;100452.41;;;23.70;51.26
25944;BME280;13742;49.306;8.636;2022-08-01T02:15:09;100456.13;;;23.70;50.68
25944;BME280;13742;49.306;8.636;2022-08-01T02:16:11;100453.85;;;23.71;50.70
25944;BME280;13742;49.306;8.636;2022-08-01T02:17:09;100454.60;;;23.70;51.29
25944;BME280;13742;49.306;8.636;2022-08-01T02:18:09;100457.88;;;23.70;51.17
25944;BME280;13742;49.306;8.636;2022-08-01T02:19:10;100456.43;;;23.70;50.79
25944;BME280;13742;49.306;8.636;2022-08-01T02:20:09;100456.85;;;23.72;50.81
25944;BME280;13742;49.306;8.636;2022-08-01T02:21:10;100456.24;;;23.72;50.59
25944;BME280;13742;49.306;8.636;2022-08-01T02:23:10;100459.43;;;23.75;50.85
25944;BME280;13742;49.306;8.636;2022-08-01T02:24:16;100454.70;;;23.75;51.07
25944;BME280;13742;49.306;8.636;2022-08-01T02:25:10;100455.88;;;23.77;50.60
25944;BME280;13742;49.306;8.636;2022-08-01T02:26:13;100456.59;;;23.76;51.54
25944;BME280;13742;49.306;8.636;2022-08-01T02:27:10;100452.81;;;23.76;51.07
25944;BME280;13742;49.306;8.636;2022-08-01T02:28:10;100456.83;;;23.75;51.27
25944;BME280;13742;49.306;8.636;2022-08-01T02:29:10;100456.70;;;23.74;50.73
25944;BME280;13742;49.306;8.636;2022-08-01T02:30:10;100458.66;;;23.74;50.28
25944;BME280;13742;49.306;8.636;2022-08-01T02:31:11;100455.79;;;23.74;50.35
25944;BME280;13742;49.306;8.636;2022-08-01T02:32:11;100457.31;;;23.74;50.36
25944;BME280;13742;49.306;8.636;2022-08-01T02:33:12;100461.96;;;23.75;50.58
25944;BME280;13742;49.306;8.636;2022-08-01T02:34:09;100462.09;;;23.74;50.46
25944;BME280;13742;49.306;8.636;2022-08-01T02:35:18;100463.64;;;23.75;50.10
25944;BME280;13742;49.306;8.636;2022-08-01T02:36:09;100465.81;;;23.74;50.23
25944;BME280;13742;49.306;8.636;2022-08-01T02:37:09;100469.42;;;23.73;50.49
25944;BME280;13742;49.306;8.636;2022-08-01T02:38:09;100464.84;;;23.72;50.34
25944;BME280;13742;49.306;8.636;2022-08-01T02:39:09;100466.52;;;23.69;51.15
25944;BME280;13742;49.306;8.636;2022-08-01T02:40:09;100467.81;;;23.66;51.11
25944;BME280;13742;49.306;8.636;2022-08-01T02:41:09;100467.27;;;23.62;51.65
25944;BME280;13742;49.306;8.636;2022-08-01T02:42:09;100469.28;;;23.52;51.96
25944;BME280;13742;49.306;8.636;2022-08-01T02:43:09;100467.13;;;23.50;51.62
25944;BME280;13742;49.306;8.636;2022-08-01T02:44:09;100466.43;;;23.49;51.17
25944;BME280;13742;49.306;8.636;2022-08-01T02:45:09;100470.53;;;23.45;52.02
25944;BME280;13742;49.306;8.636;2022-08-01T02:46:11;100466.52;;;23.40;52.25
25944;BME280;13742;49.306;8.636;2022-08-01T02:47:10;100468.52;;;23.43;51.85
25944;BME280;13742;49.306;8.636;2022-08-01T02:48:10;100469.65;;;23.40;52.05
25944;BME280;13742;49.306;8.636;2022-08-01T02:49:09;100470.44;;;23.36;52.02
25944;BME280;13742;49.306;8.636;2022-08-01T02:50:09;100467.31;;;23.36;51.11
25944;BME280;13742;49.306;8.636;2022-08-01T02:51:09;100469.64;;;23.34;51.90
25944;BME280;13742;49.306;8.636;2022-08-01T02:52:10;100467.39;;;23.32;51.17
25944;BME280;13742;49.306;8.636;2022-08-01T02:53:10;100468.78;;;23.31;51.93
25944;BME280;13742;49.306;8.636;2022-08-01T02:54:09;100464.38;;;23.29;51.38
25944;BME280;13742;49.306;8.636;2022-08-01T02:55:09;100465.64;;;23.27;51.72
25944;BME280;13742;49.306;8.636;2022-08-01T02:56:09;100466.64;;;23.12;52.47
25944;BME280;13742;49.306;8.636;2022-08-01T02:57:09;100466.67;;;23.13;52.02
25944;BME280;13742;49.306;8.636;2022-08-01T02:58:09;100466.19;;;23.17;51.74
25944;BME280;13742;49.306;8.636;2022-08-01T02:59:10;100463.09;;;23.14;51.96
25944;BME280;13742;49.306;8.636;2022-08-01T03:00:09;100462.40;;;23.11;51.67
25944;BME280;13742;49.306;8.636;2022-08-01T03:01:09;100460.67;;;23.13;51.29
25944;BME280;13742;49.306;8.636;2022-08-01T03:02:09;100462.56;;;23.14;51.37
25944;BME280;13742;49.306;8.636;2022-08-01T03:03:09;100464.05;;;23.13;51.78
25944;BME280;13742;49.306;8.636;2022-08-01T03:04:09;100463.28;;;23.10;51.96
25944;BME280;13742;49.306;8.636;2022-08-01T03:05:09;100464.97;;;23.09;51.75
25944;BME280;13742;49.306;8.636;2022-08-01T03:06:09;100463.37;;;23.05;51.99
25944;BME280;13742;49.306;8.636;2022-08-01T03:07:09;100462.00;;;23.01;51.92
25944;BME280;13742;49.306;8.636;2022-08-01T03:08:09;100462.06;;;23.01;52.06
25944;BME280;13742;49.306;8.636;2022-08-01T03:09:09;100461.61;;;22.97;51.94
25944;BME280;13742;49.306;8.636;2022-08-01T03:10:09;100461.82;;;22.95;52.01
25944;BME280;13742;49.306;8.636;2022-08-01T03:11:09;100464.02;;;22.92;51.73
25944;BME280;13742;49.306;8.636;2022-08-01T03:12:10;100462.22;;;22.86;52.46
25944;BME280;13742;49.306;8.636;2022-08-01T03:13:09;100461.39;;;22.81;52.56
25944;BME280;13742;49.306;8.636;2022-08-01T03:14:09;100458.20;;;22.77;52.67
25944;BME280;13742;49.306;8.636;2022-08-01T03:15:09;100460.42;;;22.77;52.52
25944;BME280;13742;49.306;8.636;2022-08-01T03:16:09;100458.63;;;22.79;52.51
25944;BME280;13742;49.306;8.636;2022-08-01T03:17:09;100458.87;;;22.78;52.91
25944;BME280;13742;49.306;8.636;2022-08-01T03:18:09;100460.72;;;22.80;52.58
25944;BME280;13742;49.306;8.636;2022-08-01T03:19:09;100457.02;;;22.81;52.68
25944;BME280;13742;49.306;8.636;2022-08-01T03:20:10;100453.61;;;22.82;52.72
25944;BME280;13742;49.306;8.636;2022-08-01T03:21:09;100454.02;;;22.81;52.84
25944;BME280;13742;49.306;8.636;2022-08-01T03:22:09;100452.73;;;22.81;52.69
25944;BME280;13742;49.306;8.636;2022-08-01T03:23:10;100455.00;;;22.78;52.66
25944;BME280;13742;49.306;8.636;2022-08-01T03:24:09;100455.89;;;22.73;53.09
25944;BME280;13742;49.306;8.636;2022-08-01T03:25:09;100458.08;;;22.73;52.61
25944;BME280;13742;49.306;8.636;2022-08-01T03:26:09;100461.25;;;22.68;53.39
25944;BME280;13742;49.306;8.636;2022-08-01T03:27:09;100462.39;;;22.69;52.73
25944;BME280;13742;49.306;8.636;2022-08-01T03:28:10;100458.13;;;22.65;53.12
25944;BME280;13742;49.306;8.636;2022-08-01T03:29:14;100463.48;;;22.64;53.04
25944;BME280;13742;49.306;8.636;2022-08-01T03:30:10;100454.41;;;22.59;53.59
25944;BME280;13742;49.306;8.636;2022-08-01T03:31:10;100456.80;;;22.54;53.55
25944;BME280;13742;49.306;8.636;2022-08-01T03:32:09;100460.58;;;22.48;54.41
25944;BME280;13742;49.306;8.636;2022-08-01T03:33:09;100461.23;;;22.42;54.81
25944;BME280;13742;49.306;8.636;2022-08-01T03:34:09;100457.86;;;22.45;54.45
25944;BME280;13742;49.306;8.636;2022-08-01T03:35:09;100458.67;;;22.44;54.74
25944;BME280;13742;49.306;8.636;2022-08-01T03:36:09;100462.10;;;22.46;54.34
25944;BME280;13742;49.306;8.636;2022-08-01T03:37:15;100457.93;;;22.45;54.39
25944;BME280;13742;49.306;8.636;2022-08-01T03:38:10;100457.66;;;22.44;54.13
25944;BME280;13742;49.306;8.636;2022-08-01T03:39:09;100459.34;;;22.44;53.99
25944;BME280;13742;49.306;8.636;2022-08-01T03:40:09;100463.22;;;22.41;54.62
25944;BME280;13742;49.306;8.636;2022-08-01T03:41:09;100464.33;;;22.39;54.58
25944;BME280;13742;49.306;8.636;2022-08-01T03:42:10;100465.17;;;22.37;54.79
25944;BME280;13742;49.306;8.636;2022-08-01T03:44:10;100466.75;;;22.36;54.36
25944;BME280;13742;49.306;8.636;2022-08-01T03:45:19;100463.33;;;22.34;54.76
25944;BME280;13742;49.306;8.636;2022-08-01T03:46:10;100461.17;;;22.35;55.11
25944;BME280;13742;49.306;8.636;2022-08-01T03:47:09;100461.88;;;22.36;54.53
25944;BME280;13742;49.306;8.636;2022-08-01T03:48:10;100462.21;;;22.36;54.74
25944;BME280;13742;49.306;8.636;2022-08-01T03:49:14;100459.48;;;22.35;54.24
25944;BME280;13742;49.306;8.636;2022-08-01T03:50:09;100460.53;;;22.36;53.85
25944;BME280;13742;49.306;8.636;2022-08-01T03:51:09;100460.90;;;22.37;54.16
25944;BME280;13742;49.306;8.636;2022-08-01T03:52:09;100463.80;;;22.36;54.74
25944;BME280;13742;49.306;8.636;2022-08-01T03:53:10;100463.39;;;22.32;55.41
25944;BME280;13742;49.306;8.636;2022-08-01T03:54:09;100463.43;;;22.28;55.59
25944;BME280;13742;49.306;8.636;2022-08-01T03:55:09;100469.78;;;22.30;54.96
25944;BME280;13742;49.306;8.636;2022-08-01T03:56:09;100466.09;;;22.30;54.68
25944;BME280;13742;49.306;8.636;2022-08-01T03:57:09;100465.61;;;22.31;54.23
25944;BME280;13742;49.306;8.636;2022-08-01T03:58:09;100462.75;;;22.33;54.57
25944;BME280;13742;49.306;8.636;2022-08-01T03:59:09;100464.50;;;22.33;55.12
25944;BME280;13742;49.306;8.636;2022-08-01T04:00:09;100464.97;;;22.32;55.19
25944;BME280;13742;49.306;8.636;2022-08-01T04:01:09;100461.68;;;22.31;54.79
25944;BME280;13742;49.306;8.636;2022-08-01T04:02:09;100463.02;;;22.31;54.84
25944;BME280;13742;49.306;8.636;2022-08-01T04:03:09;100462.45;;;22.32;55.14
25944;BME280;13742;49.306;8.636;2022-08-01T04:04:09;100464.94;;;22.31;55.40
25944;BME280;13742;49.306;8.636;2022-08-01T04:05:09;100464.70;;;22.28;56.02
25944;BME280;13742;49.306;8.636;2022-08-01T04:06:10;100462.02;;;22.26;55.77
25944;BME280;13742;49.306;8.636;2022-08-01T04:08:09;100463.16;;;22.28;54.94
25944;BME280;13742;49.306;8.636;2022-08-01T04:09:09;100463.80;;;22.29;55.37
25944;BME280;13742;49.306;8.636;2022-08-01T04:10:09;100460.97;;;22.30;54.64
25944;BME280;13742;49.306;8.636;2022-08-01T04:11:09;100464.34;;;22.33;54.70
25944;BME280;13742;49.306;8.636;2022-08-01T04:12:09;100463.70;;;22.35;55.16
25944;BME280;13742;49.306;8.636;2022-08-01T04:13:09;100461.50;;;22.35;55.21
25944;BME280;13742;49.306;8.636;2022-08-01T04:14:09;100460.26;;;22.36;54.80
25944;BME280;13742;49.306;8.636;2022-08-01T04:15:09;100464.84;;;22.37;56.23
25944;BME280;13742;49.306;8.636;2022-08-01T04:16:09;100467.23;;;22.38;55.96
25944;BME280;13742;49.306;8.636;2022-08-01T04:17:09;100465.44;;;22.37;56.26
25944;BME280;13742;49.306;8.636;2022-08-01T04:18:09;100468.57;;;22.35;56.22
25944;BME280;13742;49.306;8.636;2022-08-01T04:19:09;100467.59;;;22.36;56.60
25944;BME280;13742;49.306;8.636;2022-08-01T04:20:09;100468.20;;;22.33;56.83
25944;BME280;13742;49.306;8.636;2022-08-01T04:21:09;100470.13;;;22.27;57.72
25944;BME280;13742;49.306;8.636;2022-08-01T04:22:09;100468.58;;;22.26;56.96
25944;BME280;13742;49.306;8.636;2022-08-01T04:23:09;100470.09;;;22.26;57.82
25944;BME280;13742;49.306;8.636;2022-08-01T04:24:12;100473.26;;;22.23;58.01
25944;BME280;13742;49.306;8.636;2022-08-01T04:25:11;100473.32;;;22.24;57.45
25944;BME280;13742;49.306;8.636;2022-08-01T04:26:09;100471.94;;;22.26;57.44
25944;BME280;13742;49.306;8.636;2022-08-01T04:27:14;100475.10;;;22.30;57.09
25944;BME280;13742;49.306;8.636;2022-08-01T04:28:12;100475.03;;;22.31;56.50
25944;BME280;13742;49.306;8.636;2022-08-01T04:29:09;100478.91;;;22.33;56.44
25944;BME280;13742;49.306;8.636;2022-08-01T04:30:09;100477.09;;;22.29;57.65
25944;BME280;13742;49.306;8.636;2022-08-01T04:31:12;100479.61;;;22.24;57.93
25944;BME280;13742;49.306;8.636;2022-08-01T04:32:11;100477.73;;;22.23;57.73
25944;BME280;13742;49.306;8.636;2022-08-01T04:33:09;100480.76;;;22.23;57.21
25944;BME280;13742;49.306;8.636;2022-08-01T04:34:09;100480.36;;;22.26;56.77
25944;BME280;13742;49.306;8.636;2022-08-01T04:35:09;100484.09;;;22.27;57.26
25944;BME280;13742;49.306;8.636;2022-08-01T04:36:09;100485.80;;;22.25;57.66
25944;BME280;13742;49.306;8.636;2022-08-01T04:37:09;100487.86;;;22.24;57.79
25944;BME280;13742;49.306;8.636;2022-08-01T04:38:09;100487.22;;;22.25;56.80
25944;BME280;13742;49.306;8.636;2022-08-01T04:39:09;100488.30;;;22.22;57.91
25944;BME280;13742;49.306;8.636;2022-08-01T04:40:09;100487.66;;;22.23;58.22
25944;BME280;13742;49.306;8.636;2022-08-01T04:41:09;100485.97;;;22.21;58.29
25944;BME280;13742;49.306;8.636;2022-08-01T04:42:09;100486.11;;;22.22;57.24
25944;BME280;13742;49.306;8.636;2022-08-01T04:43:09;100485.47;;;22.26;56.79
25944;BME280;13742;49.306;8.636;2022-08-01T04:44:09;100487.19;;;22.27;57.45
25944;BME280;13742;49.306;8.636;2022-08-01T04:45:09;100486.31;;;22.28;56.83
25944;BME280;13742;49.306;8.636;2022-08-01T04:46:09;100488.06;;;22.30;56.49
25944;BME280;13742;49.306;8.636;2022-08-01T04:47:09;100489.41;;;22.25;57.96
25944;BME280;13742;49.306;8.636;2022-08-01T04:48:09;100491.93;;;22.23;58.42
25944;BME280;13742;49.306;8.636;2022-08-01T04:49:10;100487.52;;;22.24;58.22
25944;BME280;13742;49.306;8.636;2022-08-01T04:50:09;100490.31;;;22.24;57.95
25944;BME280;13742;49.306;8.636;2022-08-01T04:51:15;100491.63;;;22.26;56.96
25944;BME280;13742;49.306;8.636;2022-08-01T04:52:09;100491.02;;;22.28;57.04
25944;BME280;13742;49.306;8.636;2022-08-01T04:53:12;100491.66;;;22.29;57.36
25944;BME280;13742;49.306;8.636;2022-08-01T04:54:09;100492.97;;;22.31;57.13
25944;BME280;13742;49.306;8.636;2022-08-01T04:55:09;100495.06;;;22.31;57.18
25944;BME280;13742;49.306;8.636;2022-08-01T04:56:09;100494.22;;;22.31;56.66
25944;BME280;13742;49.306;8.636;2022-08-01T04:57:09;100496.00;;;22.26;58.21
25944;BME280;13742;49.306;8.636;2022-08-01T04:58:09;100498.13;;;22.26;57.39
25944;BME280;13742;49.306;8.636;2022-08-01T04:59:14;100499.87;;;22.20;58.80
25944;BME280;13742;49.306;8.636;2022-08-01T05:00:09;100498.29;;;22.22;58.37
25944;BME280;13742;49.306;8.636;2022-08-01T05:01:09;100499.77;;;22.23;57.36
25944;BME280;13742;49.306;8.636;2022-08-01T05:02:10;100500.88;;;22.24;58.10
25944;BME280;13742;49.306;8.636;2022-08-01T05:03:09;100500.11;;;22.23;57.70
25944;BME280;13742;49.306;8.636;2022-08-01T05:04:09;100499.44;;;22.23;58.00
25944;BME280;13742;49.306;8.636;2022-08-01T05:05:10;100497.95;;;22.16;59.02
25944;BME280;13742;49.306;8.636;2022-08-01T05:06:09;100500.67;;;22.18;58.90
25944;BME280;13742;49.306;8.636;2022-08-01T05:07:09;100498.11;;;22.14;59.44
25944;BME280;13742;49.306;8.636;2022-08-01T05:08:09;100499.70;;;22.13;59.43
25944;BME280;13742;49.306;8.636;2022-08-01T05:09:09;100503.27;;;22.12;59.77
25944;BME280;13742;49.306;8.636;2022-08-01T05:10:09;100499.30;;;22.11;59.35
25944;BME280;13742;49.306;8.636;2022-08-01T05:11:09;100499.77;;;22.10;60.08
25944;BME280;13742;49.306;8.636;2022-08-01T05:12:09;100496.47;;;22.10;59.97
25944;BME280;13742;49.306;8.636;2022-08-01T05:13:09;100498.42;;;22.12;59.25
25944;BME280;13742;49.306;8.636;2022-08-01T05:14:08;100495.70;;;22.14;59.49
25944;BME280;13742;49.306;8.636;2022-08-01T05:15:09;100498.02;;;22.15;58.67
25944;BME280;13742;49.306;8.636;2022-08-01T05:16:09;100497.11;;;22.17;58.56
25944;BME280;13742;49.306;8.636;2022-08-01T05:17:09;100498.22;;;22.20;58.58
25944;BME280;13742;49.306;8.636;2022-08-01T05:18:09;100499.63;;;22.21;58.32
25944;BME280;13742;49.306;8.636;2022-08-01T05:19:08;100498.89;;;22.21;58.99
25944;BME280;13742;49.306;8.636;2022-08-01T05:20:09;100499.16;;;22.22;58.66
25944;BME280;13742;49.306;8.636;2022-08-01T05:21:09;100499.60;;;22.23;58.26
25944;BME280;13742;49.306;8.636;2022-08-01T05:22:09;100500.88;;;22.23;58.87
25944;BME280;13742;49.306;8.636;2022-08-01T05:23:09;100501.11;;;22.20;60.04
25944;BME280;13742;49.306;8.636;2022-08-01T05:24:08;100498.45;;;22.18;59.81
25944;BME280;13742;49.306;8.636;2022-08-01T05:25:09;100500.31;;;22.18;60.19
25944;BME280;13742;49.306;8.636;2022-08-01T05:26:09;100497.24;;;22.20;58.75
25944;BME280;13742;49.306;8.636;2022-08-01T05:27:09;100498.72;;;22.17;60.21
25944;BME280;13742;49.306;8.636;2022-08-01T05:28:08;100499.84;;;22.20;59.56
25944;BME280;13742;49.306;8.636;2022-08-01T05:29:09;100497.01;;;22.21;59.21
25944;BME280;13742;49.306;8.636;2022-08-01T05:30:09;100496.70;;;22.25;59.38